Time;durP1;ratioP1;P1;durP2;ratioP2;P2;SDS_P1;SDS_P2;PMS_P1;PMS_P2;Temp;Humidity;BMP_temperature;BMP_pressure;BME280_temperature;BME280_humidity;BME280_pressure;Samples;Min_cycle;Max_cycle;Signal;HPM_P1;HPM_P2
2022/11/01 00:01:59;;;;;;;18.83;7.07;;;;;;;17.90;58.10;100903.19;4982637;28;20034;-49
2022/11/01 00:04:25;;;;;;;22.05;6.88;;;;;;;17.88;58.45;100907.22;4995142;28;20024;-51
2022/11/01 00:06:51;;;;;;;16.75;6.80;;;;;;;17.72;58.21;100905.38;4981521;28;20029;-48
2022/11/01 00:09:18;;;;;;;19.38;7.55;;;;;;;17.44;58.39;100907.19;4975710;28;20031;-47
2022/11/01 00:11:44;;;;;;;20.25;7.25;;;;;;;16.83;60.80;100911.66;4975784;28;20039;-48
2022/11/01 00:14:15;;;;;;;19.52;7.53;;;;;;;16.99;60.84;100908.16;4975701;28;20531;-48
2022/11/01 00:16:42;;;;;;;17.00;7.07;;;;;;;16.92;61.58;100903.94;4976006;28;20030;-51
2022/11/01 00:19:08;;;;;;;22.55;7.43;;;;;;;16.88;62.24;100907.16;4975915;28;20022;-49
2022/11/01 00:21:35;;;;;;;21.65;7.25;;;;;;;16.82;62.43;100893.78;4975651;28;20050;-47
2022/11/01 00:24:04;;;;;;;23.15;7.40;;;;;;;16.60;63.35;100905.31;4974397;28;20054;-47
2022/11/01 00:26:30;;;;;;;19.85;7.15;;;;;;;16.75;63.38;100902.06;4974785;28;20495;-49
2022/11/01 00:28:56;;;;;;;20.98;6.90;;;;;;;16.85;62.60;100901.41;4977516;28;20037;-49
2022/11/01 00:31:22;;;;;;;24.08;7.53;;;;;;;16.79;63.11;100899.69;4985863;28;20569;-56
2022/11/01 00:33:49;;;;;;;23.48;7.90;;;;;;;16.80;62.88;100898.63;4987229;28;20026;-57
2022/11/01 00:36:15;;;;;;;22.98;7.15;;;;;;;16.89;62.67;100891.75;4989234;28;20019;-57
2022/11/01 00:38:42;;;;;;;21.13;7.07;;;;;;;16.88;62.63;100907.16;4994255;28;20378;-56
2022/11/01 00:41:08;;;;;;;19.40;6.90;;;;;;;16.76;63.05;100902.88;4990033;28;20113;-50
2022/11/01 00:43:35;;;;;;;22.42;8.20;;;;;;;16.72;63.61;100899.06;4992179;28;20506;-56
2022/11/01 00:46:02;;;;;;;15.50;6.57;;;;;;;16.75;63.76;100895.84;4988029;28;20026;-56
2022/11/01 00:48:28;;;;;;;23.38;7.65;;;;;;;16.76;63.31;100903.69;4985571;28;20057;-55
2022/11/01 00:50:55;;;;;;;19.40;7.00;;;;;;;16.56;64.25;100897.94;5013637;28;20109;-60
2022/11/01 00:53:21;;;;;;;19.20;7.00;;;;;;;16.18;65.05;100887.81;4979911;28;20077;-52
2022/11/01 00:55:47;;;;;;;20.30;7.10;;;;;;;16.23;64.96;100887.91;4992963;28;20110;-55
2022/11/01 00:58:13;;;;;;;19.95;7.75;;;;;;;16.21;64.89;100876.50;4993557;28;20113;-55
2022/11/01 01:00:39;;;;;;;23.17;7.43;;;;;;;16.06;65.30;100883.28;4998540;28;20394;-56
2022/11/01 01:03:06;;;;;;;22.27;6.80;;;;;;;16.04;65.30;100888.06;4993708;28;20023;-59
2022/11/01 01:05:33;;;;;;;22.05;7.70;;;;;;;15.94;65.68;100879.00;4996101;23;20096;-59
2022/11/01 01:08:00;;;;;;;19.15;8.45;;;;;;;16.03;65.33;100875.63;4993962;28;20029;-59
2022/11/01 01:10:26;;;;;;;18.02;7.65;;;;;;;15.50;67.16;100897.50;4993314;28;20030;-59
2022/11/01 01:12:52;;;;;;;21.73;8.02;;;;;;;15.62;67.31;100892.06;4975725;28;20076;-60
2022/11/01 01:15:18;;;;;;;23.55;7.97;;;;;;;15.64;67.19;100889.97;4973838;28;20467;-60
2022/11/01 01:17:45;;;;;;;20.23;8.18;;;;;;;15.50;67.59;100884.81;4974777;28;20031;-58
2022/11/01 01:20:13;;;;;;;24.60;7.55;;;;;;;15.45;66.85;100886.59;4977425;28;20035;-56
2022/11/01 01:22:40;;;;;;;22.33;7.40;;;;;;;15.19;66.93;100885.19;4983187;28;20038;-51
2022/11/01 01:25:07;;;;;;;18.00;6.88;;;;;;;15.13;67.07;100889.66;4989223;28;20026;-53
2022/11/01 01:27:33;;;;;;;19.60;6.93;;;;;;;15.05;67.50;100903.50;4993713;28;20030;-49
2022/11/01 01:29:59;;;;;;;16.67;7.18;;;;;;;14.82;68.29;100898.88;4993708;28;20048;-54
2022/11/01 01:32:26;;;;;;;20.27;7.53;;;;;;;14.65;69.16;100897.91;4991767;28;20154;-51
2022/11/01 01:34:55;;;;;;;21.02;7.07;;;;;;;14.51;69.82;100897.31;4990384;28;20050;-57
2022/11/01 01:37:21;;;;;;;21.55;8.10;;;;;;;14.36;70.97;100894.19;4988626;28;20153;-50
2022/11/01 01:39:47;;;;;;;35.17;11.13;;;;;;;14.24;71.68;100894.16;4992682;28;20052;-50
2022/11/01 01:42:20;;;;;;;25.58;8.65;;;;;;;14.15;72.49;100896.34;4993439;28;20065;-50
2022/11/01 01:44:55;;;;;;;20.75;7.40;;;;;;;14.14;73.19;100893.88;4993218;28;20026;-48
2022/11/01 01:47:30;;;;;;;16.58;7.13;;;;;;;13.99;73.38;100900.50;4977285;28;20530;-46
2022/11/01 01:49:59;;;;;;;21.92;7.85;;;;;;;14.06;73.75;100894.22;4973882;28;20042;-48
2022/11/01 01:52:30;;;;;;;23.50;7.03;;;;;;;14.09;73.63;100899.13;4974047;28;20022;-48
2022/11/01 01:54:59;;;;;;;21.55;7.65;;;;;;;13.98;74.25;100896.16;4981469;28;20053;-47
2022/11/01 01:57:26;;;;;;;16.05;7.25;;;;;;;13.83;74.76;100895.75;4972898;28;20026;-47
2022/11/01 01:59:52;;;;;;;18.02;7.70;;;;;;;13.72;75.01;100901.88;4973787;28;20046;-48
2022/11/01 02:02:20;;;;;;;29.52;8.45;;;;;;;13.73;75.00;100906.22;4981752;28;20026;-47
2022/11/01 02:05:03;;;;;;;24.73;7.47;;;;;;;13.78;74.64;100900.97;4993008;28;20034;-48
2022/11/01 02:07:29;;;;;;;23.13;8.52;;;;;;;13.80;74.68;100890.81;4989025;28;20426;-47
2022/11/01 02:09:56;;;;;;;18.73;7.63;;;;;;;13.78;74.36;100886.72;4991378;28;20550;-47
2022/11/01 02:12:29;;;;;;;20.73;7.43;;;;;;;13.65;74.87;100884.97;4993182;28;20083;-49
2022/11/01 02:14:55;;;;;;;22.25;7.80;;;;;;;13.69;74.97;100881.63;4993378;28;20467;-47
2022/11/01 02:17:42;;;;;;;22.65;8.15;;;;;;;13.53;75.74;100884.91;4992911;28;20371;-46
2022/11/01 02:20:23;;;;;;;23.95;7.72;;;;;;;13.48;75.79;100887.44;4992971;28;20226;-48
2022/11/01 02:23:18;;;;;;;22.67;8.27;;;;;;;13.34;76.67;100875.22;4980808;28;20128;-48
2022/11/01 02:25:53;;;;;;;24.20;9.82;;;;;;;13.30;77.24;100888.25;4990840;28;20444;-49
2022/11/01 02:28:40;;;;;;;21.10;9.60;;;;;;;13.36;77.21;100892.75;4985786;28;20092;-46
2022/11/01 02:31:24;;;;;;;20.17;8.30;;;;;;;13.41;76.97;100903.66;4992284;28;20045;-48
2022/11/01 02:34:16;;;;;;;22.67;8.18;;;;;;;13.36;76.95;100900.81;4992590;28;20062;-51
2022/11/01 02:36:42;;;;;;;20.35;8.70;;;;;;;13.30;77.31;100911.63;4992076;28;20125;-47
2022/11/01 02:39:29;;;;;;;24.55;9.57;;;;;;;13.23;77.58;100910.88;4989042;28;20062;-47
2022/11/01 02:42:08;;;;;;;28.60;9.43;;;;;;;13.27;77.73;100912.91;4972715;28;20042;-47
2022/11/01 02:44:44;;;;;;;25.05;9.85;;;;;;;13.38;77.66;100919.41;4974242;28;20026;-46
2022/11/01 02:47:11;;;;;;;22.00;8.75;;;;;;;13.35;77.66;100915.31;4992353;28;20026;-47
2022/11/01 02:49:42;;;;;;;23.67;9.15;;;;;;;13.30;78.07;100922.38;4992168;28;20022;-46
2022/11/01 02:52:19;;;;;;;27.95;10.43;;;;;;;13.21;78.12;100913.78;4992043;28;20026;-47
2022/11/01 02:54:51;;;;;;;29.35;8.98;;;;;;;13.28;77.95;100917.25;4992212;28;20026;-46
2022/11/01 02:57:40;;;;;;;32.22;9.43;;;;;;;13.22;78.49;100915.44;4991152;28;20030;-47
2022/11/01 03:00:24;;;;;;;18.20;8.05;;;;;;;13.22;78.31;100914.63;4993320;28;20042;-45
2022/11/01 03:03:16;;;;;;;24.75;9.77;;;;;;;13.25;78.49;100923.03;4995570;28;20105;-45
2022/11/01 03:06:00;;;;;;;22.92;8.27;;;;;;;13.18;77.97;100919.59;4996138;28;20057;-46
2022/11/01 03:09:01;;;;;;;24.42;8.88;;;;;;;13.35;78.05;100927.94;4996042;28;20042;-46
2022/11/01 03:11:56;;;;;;;21.58;8.77;;;;;;;13.13;78.91;100927.47;4970171;28;20042;-50
2022/11/01 03:14:46;;;;;;;21.30;8.13;;;;;;;12.95;79.43;100921.03;4996537;28;20171;-49
2022/11/01 03:17:20;;;;;;;22.92;8.13;;;;;;;13.07;78.92;100923.81;4995135;28;20035;-47
2022/11/01 03:20:01;;;;;;;19.90;8.23;;;;;;;13.16;78.53;100922.50;4995402;28;20367;-48
2022/11/01 03:22:38;;;;;;;23.38;8.13;;;;;;;13.00;79.16;100923.06;4995951;28;20053;-47
2022/11/01 03:28:06;;;;;;;18.33;8.02;;;;;;;12.79;80.06;100921.56;4976124;28;20066;-47
2022/11/01 03:30:34;;;;;;;24.50;8.95;;;;;;;12.82;79.48;100922.97;4976223;28;20101;-47
2022/11/01 03:33:00;;;;;;;16.40;8.38;;;;;;;12.76;79.91;100927.34;4988389;28;20030;-46
2022/11/01 03:35:32;;;;;;;26.58;8.60;;;;;;;12.74;80.37;100924.06;4995482;28;20022;-48
2022/11/01 03:38:06;;;;;;;24.45;8.73;;;;;;;12.71;80.53;100927.19;4976069;28;20062;-46
2022/11/01 03:40:33;;;;;;;20.80;9.35;;;;;;;12.68;80.96;100924.94;4986873;28;20022;-47
2022/11/01 03:43:09;;;;;;;28.23;9.52;;;;;;;12.58;81.37;100921.91;4995953;28;20026;-46
2022/11/01 03:45:39;;;;;;;21.23;8.50;;;;;;;12.71;80.76;100921.81;4988176;28;20027;-46
2022/11/01 03:48:06;;;;;;;26.48;9.32;;;;;;;12.60;81.23;100927.88;4975744;28;20415;-46
2022/11/01 03:50:33;;;;;;;24.83;9.50;;;;;;;12.62;80.95;100925.81;4975485;28;20022;-46
2022/11/01 03:52:59;;;;;;;26.10;9.82;;;;;;;12.50;81.36;100927.56;4980455;28;20053;-47
2022/11/01 03:55:26;;;;;;;29.58;9.82;;;;;;;12.46;81.54;100929.03;4994583;28;20059;-46
2022/11/01 03:57:54;;;;;;;26.05;9.85;;;;;;;12.49;81.58;100934.78;4995203;28;20030;-49
2022/11/01 04:00:25;;;;;;;25.67;10.15;;;;;;;12.49;82.03;100931.25;4994296;28;20026;-48
2022/11/01 04:02:53;;;;;;;27.40;9.95;;;;;;;12.54;81.86;100928.75;4993314;28;20121;-48
2022/11/01 04:05:21;;;;;;;26.98;9.50;;;;;;;12.47;82.01;100931.50;4995064;28;20132;-47
2022/11/01 04:07:48;;;;;;;27.55;9.70;;;;;;;12.35;82.81;100939.41;4992078;28;20074;-49
2022/11/01 04:10:14;;;;;;;31.52;9.57;;;;;;;12.50;82.29;100939.13;4992725;28;20045;-46
2022/11/01 04:12:44;;;;;;;24.58;9.02;;;;;;;12.52;82.00;100931.66;4993575;28;20029;-49
2022/11/01 04:20:54;;;;;;;29.85;9.40;;;;;;;12.48;81.87;100935.81;4994928;28;19940;-48
2022/11/01 04:23:20;;;;;;;19.15;8.55;;;;;;;12.51;81.74;100934.56;4994498;28;20527;-47
2022/11/01 04:25:47;;;;;;;24.48;8.73;;;;;;;12.40;81.65;100931.53;4995033;28;20435;-45
2022/11/01 04:28:14;;;;;;;24.83;8.32;;;;;;;12.54;80.90;100934.13;4992523;28;20034;-46
2022/11/01 04:30:41;;;;;;;26.75;8.93;;;;;;;12.55;80.35;100944.66;4993306;28;20031;-47
2022/11/01 04:33:08;;;;;;;28.25;9.10;;;;;;;12.50;80.30;100949.88;4994669;28;20032;-46
2022/11/01 04:35:36;;;;;;;20.38;7.60;;;;;;;12.43;80.58;100952.56;4993714;28;20131;-47
2022/11/01 04:38:04;;;;;;;18.27;8.07;;;;;;;12.55;79.95;100946.53;4994633;28;20077;-47
2022/11/01 04:40:31;;;;;;;20.00;6.88;;;;;;;12.65;79.63;100952.22;4992564;28;20058;-52
2022/11/01 04:42:58;;;;;;;18.30;7.20;;;;;;;12.79;78.67;100951.09;4994463;28;20364;-48
2022/11/01 04:45:24;;;;;;;25.77;6.95;;;;;;;12.67;78.27;100944.78;4993620;28;20030;-46
2022/11/01 04:48:01;;;;;;;15.52;5.72;;;;;;;12.51;79.48;100950.69;4993208;28;20045;-47
2022/11/01 04:50:27;;;;;;;15.10;6.18;;;;;;;12.58;79.13;100946.91;4993412;28;20029;-46
2022/11/01 04:52:53;;;;;;;18.65;5.80;;;;;;;12.72;78.25;100955.72;4993058;28;20031;-46
2022/11/01 04:55:19;;;;;;;18.08;5.60;;;;;;;12.77;77.93;100955.88;4992276;28;20073;-48
2022/11/01 04:57:45;;;;;;;17.23;6.15;;;;;;;12.67;77.54;100956.34;4993887;28;20026;-46
2022/11/01 05:00:12;;;;;;;14.27;6.55;;;;;;;12.74;77.31;100956.31;4989332;28;20030;-49
2022/11/01 05:02:40;;;;;;;13.82;5.68;;;;;;;12.62;76.90;100960.72;4994027;28;20528;-50
2022/11/01 05:05:08;;;;;;;11.02;5.25;;;;;;;12.71;76.53;100964.78;4991789;28;20067;-49
2022/11/01 05:07:35;;;;;;;15.50;6.25;;;;;;;12.61;76.43;100964.47;4992702;28;20062;-51
2022/11/01 05:10:02;;;;;;;16.63;5.85;;;;;;;12.71;76.06;100967.47;4992653;28;20125;-47
2022/11/01 05:12:28;;;;;;;11.30;5.47;;;;;;;12.66;75.92;100970.81;4993952;28;20084;-45
2022/11/01 05:14:54;;;;;;;11.65;5.10;;;;;;;12.62;75.83;100963.41;4993058;28;20562;-45
2022/11/01 05:17:20;;;;;;;12.60;5.13;;;;;;;12.62;75.77;100956.19;4993748;28;20030;-46
2022/11/01 05:19:46;;;;;;;14.65;5.55;;;;;;;12.56;75.80;100954.38;4992480;28;20034;-51
2022/11/01 05:22:13;;;;;;;14.52;5.95;;;;;;;12.69;75.62;100956.94;4993517;28;20022;-47
2022/11/01 05:24:39;;;;;;;14.93;5.60;;;;;;;12.81;75.21;100957.06;4992830;28;20064;-49
2022/11/01 05:27:05;;;;;;;16.88;5.38;;;;;;;12.56;75.76;100953.53;4991058;28;20027;-45
2022/11/01 05:29:31;;;;;;;15.15;4.80;;;;;;;12.62;75.78;100952.69;4971632;28;20077;-47
2022/11/01 05:31:58;;;;;;;11.50;4.38;;;;;;;12.79;75.52;100956.47;4978642;28;20018;-46
2022/11/01 05:34:24;;;;;;;14.27;4.95;;;;;;;12.75;75.81;100947.22;4987892;28;20030;-46
2022/11/01 05:36:50;;;;;;;10.15;4.13;;;;;;;12.78;75.74;100944.09;4987133;28;20034;-49
2022/11/01 05:39:16;;;;;;;12.93;4.05;;;;;;;12.78;75.69;100932.53;4977825;28;20067;-46
2022/11/01 05:41:42;;;;;;;11.13;3.85;;;;;;;12.68;75.78;100933.00;4981285;28;20033;-48
2022/11/01 05:44:09;;;;;;;11.18;3.20;;;;;;;12.68;76.16;100933.81;4983477;28;20048;-48
2022/11/01 05:46:35;;;;;;;8.93;3.42;;;;;;;12.72;75.85;100942.28;4975685;28;20018;-47
2022/11/01 05:49:01;;;;;;;8.90;3.22;;;;;;;12.58;76.39;100946.91;4973764;28;20428;-47
2022/11/01 05:51:27;;;;;;;8.10;2.97;;;;;;;12.60;76.58;100946.69;4980360;28;20029;-45
2022/11/01 05:53:53;;;;;;;7.38;2.90;;;;;;;12.47;77.42;100946.78;4992688;28;20057;-46
2022/11/01 05:56:20;;;;;;;9.18;3.05;;;;;;;12.61;77.17;100941.13;4993160;28;20026;-45
2022/11/01 05:58:46;;;;;;;8.18;2.95;;;;;;;12.52;77.17;100938.91;4974934;28;20038;-46
2022/11/01 06:01:12;;;;;;;9.27;3.33;;;;;;;12.43;77.57;100927.56;4973713;28;20030;-46
2022/11/01 06:03:39;;;;;;;12.30;3.65;;;;;;;12.39;77.92;100924.53;4973405;28;20033;-45
2022/11/01 06:06:05;;;;;;;8.77;3.25;;;;;;;12.45;77.95;100927.38;4973377;28;20516;-46
2022/11/01 06:08:31;;;;;;;6.57;3.55;;;;;;;12.43;77.74;100923.03;4974170;28;20030;-46
2022/11/01 06:11:05;;;;;;;7.90;2.85;;;;;;;12.40;77.90;100930.72;4973119;28;20023;-45
2022/11/01 06:13:32;;;;;;;9.07;3.28;;;;;;;12.46;77.77;100931.72;4973019;28;20081;-44
2022/11/01 06:16:04;;;;;;;10.00;3.08;;;;;;;12.28;78.33;100925.22;4973569;28;20098;-45
2022/11/01 06:18:31;;;;;;;7.15;3.20;;;;;;;12.27;78.18;100918.19;4973250;28;20026;-45
2022/11/01 06:20:58;;;;;;;9.00;3.25;;;;;;;12.24;78.31;100918.63;4973182;28;20030;-46
2022/11/01 06:23:24;;;;;;;8.00;3.05;;;;;;;12.38;77.87;100920.19;4980396;28;20530;-46
2022/11/01 06:25:57;;;;;;;10.93;2.83;;;;;;;12.36;78.34;100918.75;4978562;28;20033;-47
2022/11/01 06:28:24;;;;;;;9.23;3.25;;;;;;;12.50;78.00;100916.81;4992606;28;20486;-45
2022/11/01 06:30:50;;;;;;;10.82;2.95;;;;;;;12.61;77.95;100913.44;4991466;28;20030;-50
2022/11/01 06:33:16;;;;;;;6.93;2.95;;;;;;;12.69;77.67;100910.47;4992303;28;20023;-47
2022/11/01 06:35:42;;;;;;;10.10;3.22;;;;;;;12.60;77.80;100906.41;4990448;28;20084;-47
2022/11/01 06:38:09;;;;;;;6.35;2.58;;;;;;;12.52;78.25;100904.00;4992673;28;20034;-48
2022/11/01 06:40:36;;;;;;;9.25;2.97;;;;;;;12.52;78.05;100909.38;4991219;28;20057;-48
2022/11/01 06:43:04;;;;;;;8.77;3.10;;;;;;;12.53;78.35;100900.25;4992494;28;20027;-47
2022/11/01 06:45:32;;;;;;;11.65;3.25;;;;;;;12.48;79.11;100892.03;4991228;28;20154;-47
2022/11/01 06:47:58;;;;;;;9.27;3.38;;;;;;;12.54;79.19;100900.03;4992352;28;20027;-47
2022/11/01 06:50:24;;;;;;;7.43;3.33;;;;;;;12.53;78.98;100897.59;4990970;28;20026;-47
2022/11/01 06:52:51;;;;;;;9.60;2.95;;;;;;;12.23;79.96;100887.47;4991384;28;20061;-50
2022/11/01 06:55:17;;;;;;;6.32;3.10;;;;;;;12.40;79.88;100885.06;4991261;28;20036;-48
2022/11/01 06:57:53;;;;;;;6.82;2.20;;;;;;;12.54;79.42;100893.84;4992448;28;20049;-49
2022/11/01 07:00:19;;;;;;;8.13;2.97;;;;;;;12.29;80.07;100897.31;4991141;28;20057;-47
2022/11/01 07:02:46;;;;;;;9.43;3.35;;;;;;;12.23;80.65;100905.41;4992712;28;20109;-47
2022/11/01 07:05:12;;;;;;;6.82;3.00;;;;;;;12.32;80.55;100894.19;4991057;28;20046;-47
2022/11/01 07:07:39;;;;;;;9.07;3.10;;;;;;;12.40;80.45;100896.63;4992127;28;20030;-47
2022/11/01 07:10:06;;;;;;;8.23;2.95;;;;;;;12.15;81.62;100903.78;4989925;28;20030;-48
2022/11/01 07:12:32;;;;;;;14.75;3.55;;;;;;;12.25;81.80;100904.16;4991204;28;20026;-47
2022/11/01 07:14:58;;;;;;;7.53;3.17;;;;;;;12.37;82.13;100902.41;4992187;28;20038;-51
2022/11/01 07:17:25;;;;;;;6.22;2.95;;;;;;;12.33;82.63;100897.72;4981937;28;20030;-49
2022/11/01 07:19:51;;;;;;;9.00;2.92;;;;;;;12.40;82.38;100901.19;4991889;28;20510;-48
2022/11/01 07:22:17;;;;;;;10.60;2.75;;;;;;;12.32;82.51;100896.88;4991106;28;20549;-47
2022/11/01 07:24:44;;;;;;;9.30;2.22;;;;;;;12.40;82.18;100896.63;4992118;28;20077;-49
2022/11/01 07:27:10;;;;;;;6.72;2.67;;;;;;;12.41;82.63;100898.28;4990066;28;20027;-47
2022/11/01 07:29:38;;;;;;;8.27;2.10;;;;;;;12.47;82.66;100895.75;4991647;28;20120;-49
2022/11/01 07:32:04;;;;;;;10.05;2.35;;;;;;;12.42;82.91;100889.19;4991102;28;20169;-47
2022/11/01 07:34:30;;;;;;;4.47;2.40;;;;;;;12.40;83.62;100901.19;4991973;28;20031;-48
2022/11/01 07:36:56;;;;;;;3.88;1.80;;;;;;;12.65;82.88;100885.09;4990537;28;20030;-50
2022/11/01 07:39:23;;;;;;;3.03;1.58;;;;;;;12.76;82.35;100892.44;4991655;28;20077;-50
2022/11/01 07:41:51;;;;;;;6.55;2.10;;;;;;;12.68;82.42;100892.72;4991116;28;20263;-47
2022/11/01 07:44:17;;;;;;;6.43;1.98;;;;;;;12.72;82.68;100893.13;4990630;28;20022;-51
2022/11/01 07:46:43;;;;;;;3.88;1.70;;;;;;;12.79;82.23;100886.66;4992878;28;20022;-48
2022/11/01 07:49:09;;;;;;;6.28;1.98;;;;;;;12.88;81.57;100888.03;4995203;28;20149;-47
2022/11/01 07:51:36;;;;;;;4.00;1.73;;;;;;;12.88;81.71;100889.84;4993751;28;21210;-48
2022/11/01 07:54:02;;;;;;;9.00;1.75;;;;;;;12.85;81.43;100884.94;4994526;28;20027;-48
2022/11/01 07:56:28;;;;;;;4.32;1.70;;;;;;;12.85;81.79;100888.44;4994143;28;20022;-49
2022/11/01 07:58:54;;;;;;;3.83;1.70;;;;;;;12.87;81.86;100880.16;4995013;28;20479;-47
2022/11/01 08:01:20;;;;;;;3.00;1.45;;;;;;;12.91;82.18;100882.19;4994858;28;20034;-47
2022/11/01 08:03:48;;;;;;;4.10;1.55;;;;;;;12.93;82.37;100877.41;4994715;28;20022;-50
2022/11/01 08:06:14;;;;;;;5.97;1.45;;;;;;;13.09;81.92;100878.72;4993805;28;20279;-47
2022/11/01 08:08:40;;;;;;;3.90;1.20;;;;;;;13.25;81.07;100876.53;4993858;28;20113;-50
2022/11/01 08:11:07;;;;;;;6.25;1.75;;;;;;;13.23;81.25;100882.13;4994925;28;20053;-50
2022/11/01 08:13:33;;;;;;;6.25;1.45;;;;;;;13.32;80.92;100875.41;4993858;28;20113;-47
2022/11/01 08:16:03;;;;;;;7.00;1.55;;;;;;;13.30;80.73;100890.94;4989013;28;20069;-47
2022/11/01 08:18:29;;;;;;;4.47;1.20;;;;;;;13.23;80.81;100879.47;4988994;28;20491;-48
2022/11/01 08:20:57;;;;;;;6.60;1.58;;;;;;;13.32;80.56;100875.41;4994735;28;20053;-47
2022/11/01 08:23:24;;;;;;;3.17;1.40;;;;;;;13.28;80.70;100876.91;4994096;28;20034;-49
2022/11/01 08:25:50;;;;;;;7.20;1.38;;;;;;;13.35;80.50;100876.84;4994613;28;20032;-51
2022/11/01 08:28:18;;;;;;;3.92;1.80;;;;;;;13.32;80.30;100883.47;4993724;28;20030;-47
2022/11/01 08:30:47;;;;;;;6.00;1.83;;;;;;;13.34;80.51;100889.47;4994449;28;20057;-49
2022/11/01 08:33:13;;;;;;;4.65;1.77;;;;;;;13.33;80.47;100887.84;4993573;28;20096;-49
2022/11/01 08:35:39;;;;;;;5.63;2.25;;;;;;;13.37;80.85;100885.50;4994526;28;20041;-50
2022/11/01 08:38:06;;;;;;;10.38;2.53;;;;;;;13.38;81.24;100896.06;4993673;28;20117;-48
2022/11/01 08:40:33;;;;;;;9.45;2.88;;;;;;;13.50;81.03;100885.38;4994274;28;20029;-48
2022/11/01 08:42:59;;;;;;;8.90;3.42;;;;;;;13.53;81.09;100890.28;4993495;28;20434;-50
2022/11/01 08:45:26;;;;;;;5.60;3.15;;;;;;;13.45;81.31;100888.72;4994528;28;20026;-51
2022/11/01 08:48:00;;;;;;;12.30;3.22;;;;;;;13.58;80.88;100895.00;4992103;28;20042;-50
2022/11/01 08:50:26;;;;;;;10.05;3.38;;;;;;;13.45;81.08;100888.72;4993752;28;20028;-49
2022/11/01 08:52:53;;;;;;;5.05;2.30;;;;;;;13.56;80.58;100889.03;4993414;28;20125;-51
2022/11/01 08:55:20;;;;;;;7.10;2.67;;;;;;;13.51;80.55;100892.38;4993110;28;20073;-50
2022/11/01 08:57:46;;;;;;;7.53;2.88;;;;;;;13.36;81.64;100900.81;4992389;28;20563;-49
2022/11/01 09:00:15;;;;;;;10.73;3.28;;;;;;;13.37;81.58;100897.06;4993689;28;20041;-47
2022/11/01 09:02:41;;;;;;;11.05;3.30;;;;;;;13.42;81.53;100899.09;4993112;28;20037;-47
2022/11/01 09:05:07;;;;;;;12.23;3.47;;;;;;;13.46;81.66;100893.06;4993744;28;20561;-45
2022/11/01 09:07:34;;;;;;;10.25;3.42;;;;;;;13.44;81.92;100891.66;4992792;28;20034;-46
2022/11/01 09:10:01;;;;;;;12.23;3.70;;;;;;;13.50;82.07;100889.94;4993571;28;20030;-45
2022/11/01 09:12:27;;;;;;;13.93;3.30;;;;;;;13.39;82.71;100897.69;4993207;28;20104;-47
2022/11/01 09:14:53;;;;;;;12.20;3.80;;;;;;;13.53;82.50;100889.47;4993679;28;20062;-48
2022/11/01 09:17:19;;;;;;;12.88;3.35;;;;;;;13.58;82.04;100889.63;4983322;28;20026;-45
2022/11/01 09:19:46;;;;;;;10.30;2.92;;;;;;;13.63;82.08;100895.97;4993318;28;20034;-45
2022/11/01 09:22:12;;;;;;;13.70;3.65;;;;;;;13.73;81.75;100895.44;4992722;28;20109;-45
2022/11/01 09:24:38;;;;;;;10.23;3.42;;;;;;;13.85;81.32;100892.81;4993731;28;20036;-48
2022/11/01 09:27:07;;;;;;;11.30;3.33;;;;;;;13.83;81.50;100897.63;4992581;28;20415;-47
2022/11/01 09:29:34;;;;;;;11.63;3.20;;;;;;;13.83;81.73;100905.69;4993389;28;20050;-47
2022/11/01 09:32:00;;;;;;;8.25;2.92;;;;;;;13.70;82.27;100893.19;4992456;28;20038;-47
2022/11/01 09:34:26;;;;;;;12.48;3.15;;;;;;;13.72;82.37;100894.63;4993539;28;20037;-47
2022/11/01 09:36:52;;;;;;;13.80;3.90;;;;;;;13.75;82.73;100896.03;4992228;28;20113;-50
2022/11/01 09:39:20;;;;;;;12.20;3.45;;;;;;;13.67;83.71;100907.13;4993040;28;20423;-47
2022/11/01 09:42:01;;;;;;;9.35;2.72;;;;;;;13.54;84.24;100910.75;4991953;28;20049;-47
2022/11/01 09:44:31;;;;;;;8.13;3.25;;;;;;;13.72;83.90;100909.94;4993487;28;20026;-45
2022/11/01 09:47:07;;;;;;;8.27;2.63;;;;;;;13.61;84.24;100902.63;4991961;28;20112;-45
2022/11/01 09:49:38;;;;;;;9.70;2.83;;;;;;;13.66;84.12;100902.78;4992254;28;20036;-46
2022/11/01 09:52:05;;;;;;;9.70;3.60;;;;;;;13.71;84.21;100901.06;4991268;28;20041;-45
2022/11/01 09:54:32;;;;;;;8.65;3.03;;;;;;;13.59;84.98;100897.47;4992045;28;20357;-45
2022/11/01 09:56:58;;;;;;;11.25;3.03;;;;;;;13.59;85.17;100896.63;4993155;28;20506;-48
2022/11/01 09:59:40;;;;;;;11.68;3.45;;;;;;;13.72;85.09;100900.00;4991746;28;20042;-47
2022/11/01 10:02:18;;;;;;;13.38;3.85;;;;;;;13.62;85.31;100904.28;4993287;28;20077;-47
2022/11/01 10:05:17;;;;;;;10.23;3.05;;;;;;;13.68;85.57;100901.50;4992444;28;20108;-46
2022/11/01 10:08:33;;;;;;;15.32;4.05;;;;;;;13.67;85.74;100897.16;4988418;28;20434;-47
2022/11/01 10:11:24;;;;;;;9.55;3.60;;;;;;;13.79;85.25;100899.91;4970884;28;20051;-47
2022/11/01 10:14:04;;;;;;;13.27;3.85;;;;;;;13.76;85.70;100897.66;4972941;28;20034;-48
2022/11/01 10:16:35;;;;;;;12.90;3.17;;;;;;;13.80;85.64;100896.19;4989083;28;20034;-49
2022/11/01 10:19:11;;;;;;;6.38;3.30;;;;;;;13.74;85.92;100897.09;4990117;28;20030;-47
2022/11/01 10:21:41;;;;;;;;;;;;;;;13.87;85.65;100896.91;4989437;28;20109;-47
2022/11/01 10:24:24;;;;;;;13.18;3.47;;;;;;;13.92;85.46;100888.97;4990227;28;20366;-47
2022/11/01 10:26:57;;;;;;;11.73;4.45;;;;;;;13.95;84.95;100893.94;4989213;28;20365;-48
2022/11/01 10:29:40;;;;;;;11.38;3.92;;;;;;;14.04;85.13;100883.66;4990300;28;20097;-48
2022/11/01 10:32:27;;;;;;;11.77;3.50;;;;;;;14.06;84.83;100880.75;4983224;28;20041;-47
2022/11/01 10:34:57;;;;;;;8.50;3.50;;;;;;;14.20;84.08;100879.50;4989584;28;20499;-47
2022/11/01 10:37:52;;;;;;;9.85;3.53;;;;;;;14.11;84.59;100891.66;4977282;28;20035;-46
2022/11/01 10:40:26;;;;;;;8.60;3.22;;;;;;;14.06;84.83;100883.44;4972856;28;20101;-47
2022/11/01 10:42:52;;;;;;;9.27;2.65;;;;;;;14.04;84.61;100885.53;4991964;28;20026;-47
2022/11/01 10:45:22;;;;;;;7.70;3.03;;;;;;;13.97;84.95;100869.47;4992328;28;20026;-47
2022/11/01 10:47:53;;;;;;;12.40;3.28;;;;;;;14.11;84.38;100864.75;4974911;28;20030;-47
2022/11/01 10:50:22;;;;;;;7.10;2.95;;;;;;;13.98;84.51;100858.47;4991641;28;20034;-49
2022/11/01 10:52:56;;;;;;;10.55;3.20;;;;;;;13.99;85.24;100864.66;4992295;28;20034;-46
2022/11/01 10:55:32;;;;;;;11.32;3.10;;;;;;;13.98;85.31;100858.47;4992219;28;20018;-47
2022/11/01 10:58:10;;;;;;;13.32;3.30;;;;;;;13.94;85.40;100854.63;4992350;28;20038;-47
2022/11/01 11:00:40;;;;;;;13.98;3.63;;;;;;;14.03;85.29;100851.59;4992142;28;20092;-47
2022/11/01 11:03:25;;;;;;;9.27;3.83;;;;;;;13.97;85.53;100858.72;4992539;28;20451;-48
2022/11/01 11:05:54;;;;;;;19.48;4.47;;;;;;;14.03;85.49;100849.72;4972704;28;20105;-47
2022/11/01 11:08:23;;;;;;;10.05;3.50;;;;;;;13.94;85.92;100848.41;4972130;28;20042;-47
2022/11/01 11:10:50;;;;;;;11.77;4.45;;;;;;;13.90;86.24;100850.72;4972873;28;20038;-47
2022/11/01 11:13:22;;;;;;;8.93;3.60;;;;;;;13.92;86.54;100851.31;4973159;28;20598;-47
2022/11/01 11:15:55;;;;;;;12.27;3.92;;;;;;;13.80;86.83;100847.75;4982433;28;20030;-47
2022/11/01 11:18:24;;;;;;;12.75;3.60;;;;;;;13.84;86.91;100843.56;4991642;28;20023;-48
2022/11/01 11:20:58;;;;;;;10.45;3.35;;;;;;;13.97;86.72;100838.00;4992951;28;20117;-46
2022/11/01 11:23:28;;;;;;;9.60;3.47;;;;;;;13.93;86.82;100839.50;4982434;28;20022;-46
2022/11/01 11:26:04;;;;;;;8.55;3.00;;;;;;;14.11;86.25;100840.53;4987612;28;20069;-46
2022/11/01 11:28:33;;;;;;;10.98;3.58;;;;;;;14.03;86.94;100840.81;4995002;28;20022;-53
2022/11/01 11:31:35;;;;;;;8.25;2.92;;;;;;;13.92;87.16;100840.53;4995834;28;20026;-55
2022/11/01 11:34:36;;;;;;;8.73;3.20;;;;;;;13.94;87.05;100837.66;4964731;28;20039;-50
2022/11/01 11:37:06;;;;;;;16.63;3.53;;;;;;;13.98;86.72;100834.25;4930938;28;20419;-54
2022/11/01 11:39:35;;;;;;;9.32;2.95;;;;;;;14.05;86.78;100834.19;4973370;28;20031;-54
2022/11/01 11:42:19;;;;;;;10.65;3.22;;;;;;;13.95;87.35;100834.72;4973795;28;20023;-48